Time;durP1;ratioP1;P1;durP2;ratioP2;P2;SDS_P1;SDS_P2;PMS_P1;PMS_P2;Temp;Humidity;BMP_temperature;BMP_pressure;BME280_temperature;BME280_humidity;BME280_pressure;Samples;Min_cycle;Max_cycle;Signal;HPM_P1;HPM_P2
2022/10/25 00:00:41;;;;;;;13.47;7.63;;;19.60;81.40;;;;;;5003158;28;20222;-65
2022/10/25 00:03:09;;;;;;;17.10;8.00;;;19.70;81.30;;;;;;4999378;28;20199;-65
2022/10/25 00:05:37;;;;;;;12.57;7.17;;;19.70;81.20;;;;;;5003191;28;20283;-65
2022/10/25 00:08:05;;;;;;;16.03;7.30;;;19.80;81.20;;;;;;5000910;28;20210;-65
2022/10/25 00:10:33;;;;;;;12.53;7.20;;;19.80;81.20;;;;;;5004466;28;20548;-65
2022/10/25 00:13:01;;;;;;;15.07;7.60;;;19.80;81.10;;;;;;4999647;28;20199;-65
2022/10/25 00:15:28;;;;;;;14.50;7.80;;;19.80;81.00;;;;;;5000250;28;20203;-65
2022/10/25 00:17:55;;;;;;;17.90;7.97;;;19.80;81.00;;;;;;5003450;28;20206;-65
2022/10/25 00:20:22;;;;;;;20.87;8.70;;;19.80;80.90;;;;;;5001054;28;20199;-65
2022/10/25 00:22:49;;;;;;;18.70;8.40;;;19.80;81.00;;;;;;5004615;28;20214;-65
2022/10/25 00:25:16;;;;;;;13.97;8.00;;;19.80;81.00;;;;;;5001362;28;20822;-65
2022/10/25 00:27:43;;;;;;;14.37;8.27;;;19.80;81.00;;;;;;5005095;28;20284;-65
2022/10/25 00:30:11;;;;;;;13.70;7.97;;;19.80;80.90;;;;;;5010521;28;20218;-65
2022/10/25 00:32:38;;;;;;;15.00;7.43;;;19.70;80.90;;;;;;4999859;28;20667;-65
2022/10/25 00:35:05;;;;;;;18.50;8.47;;;19.70;80.90;;;;;;5001996;28;20198;-66
2022/10/25 00:37:32;;;;;;;16.67;8.57;;;19.60;80.90;;;;;;5031125;28;20305;-65
2022/10/25 00:39:59;;;;;;;12.23;6.83;;;19.60;80.90;;;;;;4999871;28;20203;-65
2022/10/25 00:42:26;;;;;;;18.37;7.63;;;19.60;80.90;;;;;;4999839;28;20217;-65
2022/10/25 00:45:00;;;;;;;12.50;8.17;;;19.50;81.10;;;;;;5003643;28;20637;-65
2022/10/25 00:47:48;;;;;;;18.13;7.57;;;19.40;81.20;;;;;;4999423;28;20211;-65
2022/10/25 00:50:35;;;;;;;20.53;7.70;;;19.40;81.50;;;;;;5002763;28;20269;-65
2022/10/25 00:53:09;;;;;;;15.97;8.07;;;19.40;81.70;;;;;;5001632;28;20242;-65
2022/10/25 00:55:40;;;;;;;15.33;7.43;;;19.40;81.70;;;;;;4998950;28;20202;-65
2022/10/25 00:58:13;;;;;;;15.60;8.67;;;19.40;81.60;;;;;;5003744;28;20212;-65
2022/10/25 01:00:41;;;;;;;19.13;8.37;;;19.40;81.60;;;;;;5003457;28;20207;-65
2022/10/25 01:03:08;;;;;;;17.07;7.17;;;19.30;81.50;;;;;;5001880;28;20258;-65
2022/10/25 01:05:36;;;;;;;11.03;6.80;;;19.30;81.50;;;;;;5001559;28;20262;-65
2022/10/25 01:08:04;;;;;;;16.57;7.63;;;19.30;81.60;;;;;;5002813;28;20324;-65
2022/10/25 01:10:31;;;;;;;13.97;7.47;;;19.40;81.70;;;;;;5001177;28;20203;-65
2022/10/25 01:13:03;;;;;;;14.27;7.63;;;19.40;81.60;;;;;;5000661;28;20230;-65
2022/10/25 01:15:45;;;;;;;16.53;6.87;;;19.50;81.50;;;;;;5005392;28;20242;-65
2022/10/25 01:18:19;;;;;;;14.07;7.37;;;19.50;81.40;;;;;;5004457;28;20211;-65
2022/10/25 01:20:55;;;;;;;16.83;7.33;;;19.60;81.40;;;;;;5005666;28;20630;-65
2022/10/25 01:23:41;;;;;;;19.63;7.80;;;19.60;81.30;;;;;;5005732;28;20630;-65
2022/10/25 01:26:11;;;;;;;15.93;7.90;;;19.60;81.20;;;;;;5003628;28;20222;-65
2022/10/25 01:28:56;;;;;;;14.40;7.53;;;19.60;81.10;;;;;;5005986;28;20227;-65
2022/10/25 01:31:30;;;;;;;13.50;7.53;;;19.60;81.10;;;;;;5003417;28;20230;-65
2022/10/25 01:34:07;;;;;;;17.97;7.60;;;19.60;81.10;;;;;;5004520;28;20670;-65
2022/10/25 01:37:00;;;;;;;16.70;7.73;;;19.50;81.10;;;;;;5007929;28;20462;-65
2022/10/25 01:39:52;;;;;;;21.10;7.63;;;19.50;81.20;;;;;;5003996;28;20614;-65
2022/10/25 01:42:28;;;;;;;16.43;6.83;;;19.50;81.30;;;;;;5002328;28;20267;-65
2022/10/25 01:45:17;;;;;;;16.37;7.73;;;19.50;81.20;;;;;;5005075;28;20211;-65
2022/10/25 01:47:51;;;;;;;16.80;7.83;;;19.40;80.90;;;;;;5004986;28;20555;-65
2022/10/25 01:50:33;;;;;;;16.97;7.00;;;19.40;81.10;;;;;;5006705;28;20256;-65
2022/10/25 01:53:00;;;;;;;14.03;6.77;;;19.40;81.40;;;;;;5006322;28;20207;-65
2022/10/25 01:55:35;;;;;;;22.43;8.47;;;19.30;81.50;;;;;;5002229;28;20246;-65
2022/10/25 01:58:28;;;;;;;18.47;7.40;;;19.30;81.70;;;;;;5006075;28;20208;-65
2022/10/25 02:01:10;;;;;;;19.07;7.60;;;19.30;81.80;;;;;;5005222;28;20261;-65
2022/10/25 02:03:48;;;;;;;14.30;7.27;;;19.30;81.80;;;;;;5003178;28;20229;-64
2022/10/25 02:06:36;;;;;;;20.67;7.20;;;19.30;81.70;;;;;;5002632;28;20259;-65
2022/10/25 02:09:32;;;;;;;16.80;7.40;;;19.30;81.80;;;;;;5005433;28;20269;-65
2022/10/25 02:12:01;;;;;;;13.83;7.47;;;19.30;81.90;;;;;;5005081;28;20199;-65
2022/10/25 02:14:36;;;;;;;10.33;7.37;;;19.30;81.80;;;;;;5002409;28;20266;-65
2022/10/25 02:17:07;;;;;;;20.60;8.20;;;19.20;81.90;;;;;;5002143;28;20203;-65
2022/10/25 02:19:38;;;;;;;12.13;6.87;;;19.30;82.10;;;;;;5001836;28;20581;-65
2022/10/25 02:22:09;;;;;;;20.60;8.03;;;19.20;82.00;;;;;;5005276;28;20251;-65
2022/10/25 02:24:37;;;;;;;14.57;8.00;;;19.20;82.00;;;;;;5000683;28;20248;-65
2022/10/25 02:27:06;;;;;;;15.33;7.53;;;19.20;82.00;;;;;;5002578;28;20618;-65
2022/10/25 02:29:35;;;;;;;13.10;7.10;;;19.20;82.10;;;;;;5002308;28;20207;-65
2022/10/25 02:32:03;;;;;;;16.30;7.77;;;19.10;82.00;;;;;;5002886;28;20199;-65
2022/10/25 02:34:31;;;;;;;16.67;7.77;;;19.10;82.10;;;;;;5003413;28;20293;-65
2022/10/25 02:36:58;;;;;;;18.77;7.33;;;19.10;82.10;;;;;;5005794;28;20234;-66
2022/10/25 02:39:27;;;;;;;13.20;7.83;;;19.00;82.40;;;;;;5003308;28;20198;-65
2022/10/25 02:41:57;;;;;;;21.33;8.17;;;18.90;82.70;;;;;;5002459;28;20214;-65
2022/10/25 02:44:24;;;;;;;12.77;8.30;;;18.90;82.80;;;;;;5005078;28;20632;-65
2022/10/25 02:46:51;;;;;;;13.40;7.13;;;18.90;82.90;;;;;;5004313;28;20210;-65
2022/10/25 02:49:19;;;;;;;14.17;7.60;;;18.90;83.00;;;;;;5002812;28;20211;-65
2022/10/25 02:51:46;;;;;;;12.27;7.40;;;18.90;83.10;;;;;;5001610;28;20197;-65
2022/10/25 02:54:13;;;;;;;12.80;7.50;;;18.80;83.10;;;;;;5000148;28;20208;-65
2022/10/25 02:56:40;;;;;;;17.57;7.70;;;18.80;83.20;;;;;;4999742;28;20206;-65
2022/10/25 02:59:11;;;;;;;14.93;6.10;;;18.70;83.30;;;;;;4999495;28;20640;-65
2022/10/25 03:01:38;;;;;;;16.23;8.03;;;18.70;83.30;;;;;;5002997;28;20203;-65
2022/10/25 03:04:05;;;;;;;19.60;8.60;;;18.70;83.40;;;;;;5002855;28;20196;-65
2022/10/25 03:06:32;;;;;;;15.77;7.30;;;18.70;83.50;;;;;;5005014;28;20207;-65
2022/10/25 03:08:59;;;;;;;16.07;8.00;;;18.70;83.60;;;;;;5003891;28;20253;-65
2022/10/25 03:11:26;;;;;;;15.00;7.87;;;18.70;83.80;;;;;;5000915;28;20212;-65
2022/10/25 03:13:53;;;;;;;20.90;8.23;;;18.60;83.90;;;;;;5003908;28;20582;-65
2022/10/25 03:16:20;;;;;;;21.40;7.83;;;18.60;84.00;;;;;;5004355;28;20205;-65
2022/10/25 03:18:47;;;;;;;23.37;7.47;;;18.60;84.00;;;;;;5005459;28;20201;-65
2022/10/25 03:21:14;;;;;;;17.93;8.20;;;18.60;84.10;;;;;;4998861;28;20630;-65
2022/10/25 03:23:41;;;;;;;14.83;8.63;;;18.50;84.20;;;;;;5005898;28;20229;-65
2022/10/25 03:26:08;;;;;;;16.63;7.87;;;18.50;84.30;;;;;;5002314;28;20335;-65
2022/10/25 03:28:35;;;;;;;11.73;6.97;;;18.40;84.30;;;;;;5002797;28;20560;-65
2022/10/25 03:31:02;;;;;;;18.50;7.70;;;18.40;84.50;;;;;;5002195;28;20235;-65
2022/10/25 03:33:29;;;;;;;14.47;7.60;;;18.40;84.50;;;;;;5002345;28;20205;-66
2022/10/25 03:36:01;;;;;;;12.83;8.23;;;18.30;84.40;;;;;;5001657;28;20202;-65
2022/10/25 03:38:28;;;;;;;16.17;7.07;;;18.20;84.60;;;;;;5002303;28;20544;-65
2022/10/25 03:40:55;;;;;;;17.00;7.93;;;18.20;85.00;;;;;;5001827;28;20210;-65
2022/10/25 03:43:22;;;;;;;20.43;8.27;;;18.20;85.20;;;;;;5002569;28;20209;-65
2022/10/25 03:45:54;;;;;;;14.20;8.17;;;18.20;85.20;;;;;;5003052;28;20200;-66
2022/10/25 03:48:21;;;;;;;18.03;7.37;;;18.10;85.10;;;;;;5002264;28;20219;-66
2022/10/25 03:50:48;;;;;;;13.77;7.43;;;18.00;85.20;;;;;;5003642;28;20612;-66
2022/10/25 03:53:15;;;;;;;16.63;7.73;;;18.00;85.30;;;;;;5006193;28;20215;-65
2022/10/25 03:55:42;;;;;;;15.57;7.47;;;17.90;85.30;;;;;;5002054;28;20204;-65
2022/10/25 03:58:09;;;;;;;14.57;7.40;;;17.90;85.10;;;;;;5000416;28;20229;-65
2022/10/25 04:00:36;;;;;;;16.67;7.50;;;17.80;84.60;;;;;;5002297;28;20556;-65
2022/10/25 04:03:03;;;;;;;13.10;7.87;;;17.80;83.80;;;;;;5001799;28;20646;-65
2022/10/25 04:05:31;;;;;;;15.47;7.57;;;17.70;84.10;;;;;;5002599;28;20208;-65
2022/10/25 04:07:58;;;;;;;18.60;8.63;;;17.60;84.70;;;;;;5003302;28;20215;-65
2022/10/25 04:10:26;;;;;;;18.97;7.60;;;17.50;85.30;;;;;;5001792;28;20201;-65
2022/10/25 04:12:53;;;;;;;17.93;8.30;;;17.50;85.80;;;;;;5003864;28;20225;-65
2022/10/25 04:15:22;;;;;;;12.63;7.43;;;17.50;86.20;;;;;;5005509;28;20200;-65
2022/10/25 04:17:51;;;;;;;11.40;7.67;;;17.50;86.40;;;;;;4998623;28;20690;-65
2022/10/25 04:20:18;;;;;;;22.63;9.13;;;17.50;86.60;;;;;;4999067;28;20565;-65
2022/10/25 04:22:52;;;;;;;16.53;9.20;;;17.50;86.80;;;;;;5003204;28;20623;-65
2022/10/25 04:25:20;;;;;;;21.53;8.73;;;17.50;86.90;;;;;;5000107;28;20655;-65
2022/10/25 04:27:47;;;;;;;20.90;9.10;;;17.40;87.30;;;;;;5003446;28;20216;-65
2022/10/25 04:30:15;;;;;;;24.97;9.47;;;17.40;87.10;;;;;;5001555;28;20645;-65
2022/10/25 04:32:42;;;;;;;16.57;8.87;;;17.40;87.30;;;;;;5004374;28;20260;-65
2022/10/25 04:35:09;;;;;;;13.30;9.33;;;17.40;87.30;;;;;;5000811;28;20263;-65
2022/10/25 04:37:36;;;;;;;19.90;9.50;;;17.30;87.70;;;;;;5009305;28;20216;-65
2022/10/25 04:40:04;;;;;;;18.47;9.53;;;17.30;87.70;;;;;;4996499;28;20576;-65
2022/10/25 04:42:33;;;;;;;20.27;10.23;;;17.30;87.80;;;;;;4999495;28;20205;-65
2022/10/25 04:45:00;;;;;;;19.67;10.47;;;17.30;87.80;;;;;;4999024;28;20209;-65
2022/10/25 04:47:31;;;;;;;19.17;10.57;;;17.20;87.80;;;;;;5000293;28;20694;-65
2022/10/25 04:49:58;;;;;;;15.30;10.63;;;17.20;88.00;;;;;;5011325;28;20633;-65
2022/10/25 04:52:27;;;;;;;24.57;11.67;;;17.10;88.20;;;;;;5005997;28;20235;-65
2022/10/25 04:54:54;;;;;;;18.47;12.20;;;17.10;88.40;;;;;;5005335;28;20192;-65
2022/10/25 04:57:21;;;;;;;20.90;12.20;;;17.00;88.60;;;;;;5004507;28;20291;-65
2022/10/25 04:59:48;;;;;;;18.13;12.73;;;17.00;88.90;;;;;;5004191;28;20201;-65
2022/10/25 05:02:15;;;;;;;18.97;11.63;;;17.10;89.20;;;;;;5007806;28;20228;-65
2022/10/25 05:04:42;;;;;;;25.07;13.53;;;17.10;89.40;;;;;;5003935;28;20568;-65
2022/10/25 05:07:09;;;;;;;25.80;15.17;;;17.00;89.50;;;;;;5004158;28;20309;-65
2022/10/25 05:09:36;;;;;;;21.23;14.00;;;17.10;90.00;;;;;;5006106;28;20221;-66
2022/10/25 05:12:04;;;;;;;25.83;15.43;;;17.00;90.00;;;;;;5005074;28;20224;-65
2022/10/25 05:14:30;;;;;;;27.73;17.73;;;17.10;90.00;;;;;;5005453;28;20711;-65
2022/10/25 05:16:58;;;;;;;22.17;16.47;;;17.00;90.20;;;;;;5006537;28;20196;-65
2022/10/25 05:19:25;;;;;;;29.47;18.40;;;17.00;90.30;;;;;;5003425;28;20231;-66
2022/10/25 05:21:52;;;;;;;38.87;20.17;;;17.00;90.60;;;;;;5002901;28;20250;-66
2022/10/25 05:24:19;;;;;;;35.27;21.27;;;17.00;91.10;;;;;;5008302;28;20240;-66
2022/10/25 05:26:46;;;;;;;42.27;20.90;;;17.00;91.40;;;;;;5004458;28;20282;-66
2022/10/25 05:29:13;;;;;;;35.17;22.33;;;17.10;91.70;;;;;;5002147;28;20621;-66
2022/10/25 05:31:41;;;;;;;38.70;21.40;;;17.10;91.90;;;;;;5007693;28;20200;-66
2022/10/25 05:34:09;;;;;;;31.50;20.90;;;17.10;92.00;;;;;;5003255;28;20637;-66
2022/10/25 05:36:37;;;;;;;32.90;21.03;;;17.10;92.10;;;;;;5005303;28;20201;-66
2022/10/25 05:39:04;;;;;;;32.83;22.43;;;17.20;92.20;;;;;;5006682;28;20232;-66
2022/10/25 05:41:31;;;;;;;34.40;22.37;;;17.20;92.30;;;;;;5004706;28;20215;-65
2022/10/25 05:44:03;;;;;;;40.23;24.80;;;17.20;92.40;;;;;;5000367;28;20835;-65
2022/10/25 05:46:30;;;;;;;36.53;23.63;;;17.30;92.50;;;;;;5007389;28;20208;-65
2022/10/25 05:48:58;;;;;;;37.47;22.80;;;17.30;92.70;;;;;;5001207;28;20220;-65
2022/10/25 05:51:28;;;;;;;35.40;23.57;;;17.30;92.80;;;;;;5004671;28;20255;-65
2022/10/25 05:54:13;;;;;;;30.10;23.07;;;17.40;92.80;;;;;;5004611;28;20197;-67
2022/10/25 05:56:41;;;;;;;37.70;24.03;;;17.30;92.80;;;;;;5004841;28;20642;-66
2022/10/25 05:59:11;;;;;;;33.13;22.50;;;17.30;92.70;;;;;;5002822;28;20209;-66
2022/10/25 06:01:43;;;;;;;30.70;21.50;;;17.30;92.70;;;;;;5001130;28;20198;-66
2022/10/25 06:04:12;;;;;;;34.17;23.17;;;17.30;92.70;;;;;;5003935;28;20844;-66
2022/10/25 06:06:39;;;;;;;38.77;23.43;;;17.30;92.60;;;;;;5003665;28;20340;-66
2022/10/25 06:09:07;;;;;;;38.60;23.60;;;17.30;92.60;;;;;;5001574;28;20288;-66
2022/10/25 06:11:35;;;;;;;39.13;22.80;;;17.30;92.60;;;;;;5002204;28;20206;-66
2022/10/25 06:14:03;;;;;;;35.87;22.23;;;17.30;92.60;;;;;;5003861;28;20193;-66
2022/10/25 06:16:30;;;;;;;37.67;24.07;;;17.30;92.60;;;;;;5002459;28;20202;-66
2022/10/25 06:18:57;;;;;;;44.17;25.33;;;17.30;92.60;;;;;;5004375;28;20300;-65
2022/10/25 06:21:27;;;;;;;43.00;24.97;;;17.30;92.70;;;;;;5011317;28;20245;-65
2022/10/25 06:23:55;;;;;;;38.80;23.97;;;17.40;93.00;;;;;;5003060;28;20206;-65
2022/10/25 06:26:25;;;;;;;45.13;27.77;;;17.40;93.00;;;;;;5001574;28;20204;-66
2022/10/25 06:28:55;;;;;;;48.73;30.53;;;17.50;93.10;;;;;;5000842;28;20287;-66
2022/10/25 06:31:22;;;;;;;36.37;23.67;;;17.50;93.30;;;;;;5007003;28;20250;-67
2022/10/25 06:33:49;;;;;;;41.33;23.93;;;17.60;93.40;;;;;;4998416;28;20208;-66
2022/10/25 06:36:22;;;;;;;44.40;28.57;;;17.70;93.40;;;;;;5001011;28;20254;-66
2022/10/25 06:38:50;;;;;;;43.00;25.53;;;17.70;93.40;;;;;;5001784;28;20193;-66
2022/10/25 06:41:19;;;;;;;42.80;24.87;;;17.80;93.50;;;;;;5001874;28;20209;-66
2022/10/25 06:43:47;;;;;;;44.10;26.63;;;17.80;93.50;;;;;;5001651;28;20212;-66
2022/10/25 06:46:24;;;;;;;53.70;32.07;;;17.90;93.50;;;;;;5001267;28;20626;-66
2022/10/25 06:48:53;;;;;;;52.87;31.63;;;17.90;93.40;;;;;;5004579;28;20231;-66
2022/10/25 06:51:21;;;;;;;55.77;31.63;;;18.00;93.60;;;;;;5003738;28;20205;-66
2022/10/25 06:53:56;;;;;;;53.83;31.67;;;18.00;93.70;;;;;;5003816;28;20276;-66
2022/10/25 06:56:24;;;;;;;50.90;30.80;;;18.10;93.90;;;;;;5004588;28;20206;-66
2022/10/25 06:58:51;;;;;;;48.30;31.27;;;18.10;93.90;;;;;;5002411;28;20209;-67
2022/10/25 07:01:20;;;;;;;55.17;27.93;;;18.20;94.00;;;;;;5003342;28;20228;-66
2022/10/25 07:03:49;;;;;;;45.37;30.50;;;18.30;94.00;;;;;;5003953;28;20216;-67
2022/10/25 07:06:25;;;;;;;54.60;32.73;;;18.40;94.10;;;;;;5001717;28;20214;-67
2022/10/25 07:09:00;;;;;;;53.30;32.47;;;18.40;93.70;;;;;;5002641;28;20661;-66
2022/10/25 07:11:30;;;;;;;53.97;32.30;;;18.40;93.70;;;;;;5003804;28;20201;-66
2022/10/25 07:13:58;;;;;;;52.07;33.13;;;18.50;93.70;;;;;;5001477;28;20256;-66
2022/10/25 07:16:26;;;;;;;54.50;31.93;;;18.60;93.80;;;;;;5003713;28;20195;-66
2022/10/25 07:19:00;;;;;;;60.67;31.73;;;18.60;93.80;;;;;;5002333;28;20255;-67
2022/10/25 07:21:28;;;;;;;46.33;29.50;;;18.70;93.90;;;;;;5004263;28;20284;-66
2022/10/25 07:23:55;;;;;;;46.90;31.00;;;18.80;94.00;;;;;;5004155;28;20260;-66
2022/10/25 07:26:27;;;;;;;53.20;30.33;;;18.90;94.00;;;;;;5002084;28;20231;-66
2022/10/25 07:28:56;;;;;;;52.03;30.07;;;19.00;94.10;;;;;;4999032;28;20244;-66
2022/10/25 07:31:27;;;;;;;45.30;28.63;;;19.00;94.20;;;;;;5002030;28;20257;-66
2022/10/25 07:33:57;;;;;;;48.20;29.67;;;19.10;94.30;;;;;;5005051;28;20602;-67
2022/10/25 07:36:25;;;;;;;48.50;27.10;;;19.30;94.40;;;;;;5000674;28;20591;-67
2022/10/25 07:38:52;;;;;;;39.53;26.73;;;19.40;94.40;;;;;;5005600;28;20749;-67
2022/10/25 07:41:19;;;;;;;38.10;26.20;;;19.50;94.30;;;;;;5004267;28;20637;-67
2022/10/25 07:43:46;;;;;;;38.80;24.07;;;19.60;94.20;;;;;;5004159;28;20284;-67
2022/10/25 07:46:13;;;;;;;31.30;21.67;;;19.70;94.10;;;;;;5003435;28;20262;-66
2022/10/25 07:48:40;;;;;;;30.57;19.93;;;19.80;94.10;;;;;;5003759;28;20648;-66
2022/10/25 07:51:11;;;;;;;27.97;20.47;;;19.80;93.80;;;;;;5000909;28;20203;-66
2022/10/25 07:53:38;;;;;;;31.30;21.03;;;19.90;93.80;;;;;;5000514;28;20221;-67
2022/10/25 07:56:09;;;;;;;22.87;16.93;;;20.00;93.80;;;;;;5005544;28;20204;-67
2022/10/25 07:58:36;;;;;;;22.57;15.97;;;20.10;93.30;;;;;;5001315;28;20240;-66
2022/10/25 08:01:05;;;;;;;21.00;15.13;;;20.30;92.90;;;;;;5000668;28;20297;-66
2022/10/25 08:03:33;;;;;;;16.03;12.13;;;20.40;92.80;;;;;;5004843;28;20628;-66
2022/10/25 08:06:00;;;;;;;17.10;12.60;;;20.50;92.70;;;;;;5002693;28;20208;-66
2022/10/25 08:08:28;;;;;;;13.33;8.20;;;20.70;92.00;;;;;;5001619;28;20274;-67
2022/10/25 08:10:56;;;;;;;9.10;7.60;;;20.90;91.20;;;;;;5002065;28;20197;-67
2022/10/25 08:13:23;;;;;;;8.47;6.73;;;21.00;90.80;;;;;;5001112;28;20588;-67
2022/10/25 08:15:53;;;;;;;10.10;6.77;;;21.10;90.60;;;;;;5000589;28;20213;-68
2022/10/25 08:18:21;;;;;;;11.80;6.80;;;21.20;90.30;;;;;;5000971;28;20266;-67
2022/10/25 08:20:48;;;;;;;12.77;7.30;;;21.40;89.60;;;;;;5001883;28;20231;-67
2022/10/25 08:23:30;;;;;;;12.17;7.20;;;21.50;87.70;;;;;;5003520;28;20632;-67
2022/10/25 08:25:57;;;;;;;13.17;6.67;;;21.60;87.10;;;;;;5007540;28;20268;-67
2022/10/25 08:28:25;;;;;;;11.80;7.03;;;21.70;86.90;;;;;;5003828;28;20636;-67
2022/10/25 08:30:54;;;;;;;9.77;6.57;;;21.70;86.70;;;;;;5005242;28;20211;-68
2022/10/25 08:33:21;;;;;;;9.93;6.97;;;21.90;86.50;;;;;;5001880;28;20199;-70
2022/10/25 08:35:48;;;;;;;8.60;6.00;;;21.90;85.50;;;;;;5005080;28;20199;-70
2022/10/25 08:38:15;;;;;;;8.57;5.87;;;22.00;84.20;;;;;;5005674;28;20629;-70
2022/10/25 08:41:01;;;;;;;11.73;7.27;;;22.10;84.50;;;;;;5007321;28;20440;-66
2022/10/25 08:43:53;;;;;;;9.43;6.53;;;22.20;84.30;;;;;;5006347;28;20196;-70
2022/10/25 08:46:31;;;;;;;11.53;6.60;;;22.40;83.60;;;;;;5007690;28;20205;-70
2022/10/25 08:49:21;;;;;;;11.87;6.83;;;22.50;83.00;;;;;;5006231;28;20280;-72
2022/10/25 08:51:49;;;;;;;9.93;6.83;;;22.60;82.50;;;;;;5008250;28;20210;-69
2022/10/25 08:54:45;;;;;;;9.53;5.73;;;22.70;82.00;;;;;;5011334;28;20582;-69
2022/10/25 08:57:28;;;;;;;10.53;5.77;;;22.80;81.20;;;;;;5008200;28;20587;-66
2022/10/25 08:59:59;;;;;;;12.57;6.33;;;22.90;80.20;;;;;;5006891;28;20203;-67
2022/10/25 09:02:55;;;;;;;9.63;6.00;;;23.00;79.80;;;;;;5004833;28;20200;-66
2022/10/25 09:06:01;;;;;;;7.50;5.60;;;23.00;79.60;;;;;;5007849;28;20220;-68
2022/10/25 09:08:47;;;;;;;9.30;5.87;;;23.10;79.70;;;;;;5008023;28;20283;-69
2022/10/25 09:11:32;;;;;;;11.07;5.07;;;23.20;79.50;;;;;;5002922;28;20658;-68
2022/10/25 09:14:02;;;;;;;7.67;5.90;;;23.30;78.70;;;;;;5001095;28;20286;-68
2022/10/25 09:16:55;;;;;;;12.40;6.07;;;23.30;77.70;;;;;;5003988;28;20212;-67
2022/10/25 09:19:31;;;;;;;11.87;5.77;;;23.30;77.50;;;;;;5008764;28;20585;-69
2022/10/25 09:21:59;;;;;;;12.23;5.67;;;23.30;77.60;;;;;;5005211;28;20681;-68
2022/10/25 09:24:32;;;;;;;8.80;5.70;;;23.40;77.60;;;;;;5004471;28;20200;-67
2022/10/25 09:27:06;;;;;;;11.37;5.90;;;23.40;77.00;;;;;;5005487;28;20201;-66
2022/10/25 09:30:13;;;;;;;8.80;5.17;;;23.50;77.10;;;;;;5002151;28;20204;-68
2022/10/25 09:32:50;;;;;;;13.13;6.03;;;23.50;76.80;;;;;;5010319;28;20208;-70
2022/10/25 09:35:23;;;;;;;11.73;6.33;;;23.60;76.60;;;;;;5004610;28;20216;-68
2022/10/25 09:38:00;;;;;;;11.13;6.67;;;23.60;76.20;;;;;;5011935;28;20209;-66
2022/10/25 09:40:40;;;;;;;9.47;6.03;;;23.40;76.20;;;;;;5004162;28;20196;-65
2022/10/25 09:43:17;;;;;;;11.60;6.80;;;23.30;76.60;;;;;;5002131;28;20291;-65
2022/10/25 09:45:49;;;;;;;9.27;5.63;;;23.20;76.80;;;;;;5001129;28;20211;-66
2022/10/25 09:48:36;;;;;;;12.83;6.77;;;23.10;76.80;;;;;;5002976;28;20262;-68
2022/10/25 09:51:49;;;;;;;8.50;5.83;;;23.00;77.20;;;;;;5001886;28;20266;-67
2022/10/25 09:54:31;;;;;;;12.20;6.27;;;23.00;77.70;;;;;;5003687;28;20663;-65
2022/10/25 09:56:58;;;;;;;10.73;6.03;;;23.00;77.30;;;;;;5005202;28;20188;-68
2022/10/25 09:59:28;;;;;;;10.63;6.33;;;23.10;77.40;;;;;;5002396;28;20208;-69
2022/10/25 10:01:55;;;;;;;10.13;5.63;;;23.10;76.90;;;;;;5006366;28;20195;-67
2022/10/25 10:04:43;;;;;;;12.30;5.80;;;23.20;77.20;;;;;;5005787;28;20200;-66
2022/10/25 10:07:35;;;;;;;7.20;4.80;;;23.30;75.70;;;;;;5002493;28;20200;-66
2022/10/25 10:10:08;;;;;;;10.37;5.33;;;23.40;75.90;;;;;;5005060;28;20217;-65
2022/10/25 10:12:52;;;;;;;8.03;4.97;;;23.50;75.70;;;;;;5002061;28;20255;-69
2022/10/25 10:15:23;;;;;;;11.70;5.10;;;23.50;74.70;;;;;;5002557;28;20201;-69
2022/10/25 10:18:18;;;;;;;10.03;6.00;;;23.60;74.40;;;;;;5004547;28;20263;-66
2022/10/25 10:20:56;;;;;;;10.07;5.13;;;23.70;74.40;;;;;;5002010;28;20248;-68
2022/10/25 10:23:24;;;;;;;7.60;4.53;;;23.80;74.30;;;;;;5004873;28;20618;-68
2022/10/25 10:25:52;;;;;;;13.23;5.07;;;23.80;73.70;;;;;;5005440;28;20204;-67
2022/10/25 10:28:19;;;;;;;8.93;5.23;;;23.90;73.40;;;;;;5002345;28;20216;-67
2022/10/25 10:30:55;;;;;;;12.93;5.10;;;23.90;73.20;;;;;;5002753;28;20613;-71
2022/10/25 10:33:29;;;;;;;7.83;4.70;;;23.90;72.70;;;;;;5012668;28;20655;-68
2022/10/25 10:36:24;;;;;;;8.27;5.63;;;24.00;73.10;;;;;;5004060;28;20633;-68
2022/10/25 10:38:52;;;;;;;6.20;5.23;;;24.00;72.40;;;;;;5002205;28;20716;-66
2022/10/25 10:41:27;;;;;;;8.97;4.77;;;24.00;72.50;;;;;;5005153;28;20208;-66
2022/10/25 10:44:12;;;;;;;6.33;4.70;;;24.00;72.60;;;;;;5002951;28;20214;-67
2022/10/25 10:46:45;;;;;;;9.43;4.90;;;23.90;72.90;;;;;;5004181;28;20262;-67
2022/10/25 10:49:13;;;;;;;9.33;5.40;;;24.00;73.10;;;;;;5004467;28;20731;-66
2022/10/25 10:51:43;;;;;;;8.60;4.73;;;24.10;73.10;;;;;;5002920;28;20263;-68
2022/10/25 10:54:12;;;;;;;8.60;4.83;;;24.30;73.40;;;;;;5000923;28;20208;-68
2022/10/25 10:56:39;;;;;;;7.90;4.80;;;24.50;72.30;;;;;;5005640;28;20264;-69
2022/10/25 10:59:35;;;;;;;8.33;4.73;;;24.70;71.00;;;;;;5001378;28;20207;-67
2022/10/25 11:02:19;;;;;;;8.87;4.77;;;24.80;69.40;;;;;;5004585;28;20626;-69
2022/10/25 11:04:51;;;;;;;8.37;4.93;;;25.00;69.30;;;;;;5001427;28;20196;-69
2022/10/25 11:07:31;;;;;;;6.07;4.87;;;25.00;68.10;;;;;;4999117;28;20239;-69
2022/10/25 11:10:16;;;;;;;6.83;5.53;;;25.00;68.20;;;;;;5000075;28;20305;-69
2022/10/25 11:12:43;;;;;;;6.07;3.73;;;25.10;68.60;;;;;;5002530;28;20642;-69
2022/10/25 11:15:12;;;;;;;7.17;3.70;;;25.20;67.10;;;;;;5001808;28;20271;-70
2022/10/25 11:17:49;;;;;;;7.80;3.83;;;25.30;67.20;;;;;;5002745;28;20201;-66
2022/10/25 11:20:49;;;;;;;9.00;4.43;;;25.30;67.40;;;;;;5005578;28;20594;-67
2022/10/25 11:23:37;;;;;;;7.13;4.10;;;25.40;65.10;;;;;;4999917;28;20546;-66
2022/10/25 11:26:14;;;;;;;9.13;4.53;;;25.30;64.50;;;;;;5005064;28;20537;-67
2022/10/25 11:29:29;;;;;;;7.83;4.20;;;25.20;65.10;;;;;;5000255;28;20517;-66
2022/10/25 11:32:20;;;;;;;7.43;4.40;;;25.20;64.90;;;;;;5027359;28;20215;-67
2022/10/25 11:35:17;;;;;;;7.30;4.50;;;25.30;65.20;;;;;;5004948;28;20263;-69
2022/10/25 11:38:13;;;;;;;7.63;4.23;;;25.50;65.00;;;;;;5001604;28;20275;-66
2022/10/25 11:40:53;;;;;;;7.70;3.57;;;25.60;64.70;;;;;;5023127;28;20209;-68
2022/10/25 11:43:36;;;;;;;11.40;4.10;;;25.70;64.90;;;;;;5001383;28;20207;-67
2022/10/25 11:46:11;;;;;;;8.33;3.67;;;25.80;64.50;;;;;;5000888;28;20204;-66
2022/10/25 11:48:44;;;;;;;6.03;4.00;;;25.90;64.10;;;;;;5005477;28;20203;-67
2022/10/25 11:51:17;;;;;;;7.60;3.57;;;26.00;63.10;;;;;;5003878;28;20232;-68
2022/10/25 11:54:00;;;;;;;7.67;3.23;;;26.00;62.10;;;;;;5002562;28;20681;-68
2022/10/25 11:56:35;;;;;;;10.13;3.70;;;26.00;62.00;;;;;;5005505;28;20264;-68
2022/10/25 11:59:37;;;;;;;8.63;3.90;;;25.90;62.30;;;;;;5001281;28;20201;-68
2022/10/25 12:02:31;;;;;;;5.73;3.77;;;25.90;62.50;;;;;;5002486;28;20276;-69
2022/10/25 12:05:13;;;;;;;6.03;3.30;;;25.80;62.50;;;;;;5003946;28;20626;-69
2022/10/25 12:07:54;;;;;;;8.10;4.20;;;25.80;62.30;;;;;;5001029;28;20197;-68
2022/10/25 12:10:38;;;;;;;7.23;3.47;;;25.80;62.40;;;;;;4997881;28;20211;-68
2022/10/25 12:13:12;;;;;;;8.63;3.80;;;25.90;62.30;;;;;;5001616;28;20306;-68
2022/10/25 12:15:46;;;;;;;8.23;3.47;;;25.90;62.60;;;;;;5000569;28;20201;-68
2022/10/25 12:18:24;;;;;;;5.33;3.60;;;26.00;61.70;;;;;;5008259;28;20207;-68
2022/10/25 12:20:53;;;;;;;8.57;4.60;;;26.10;62.00;;;;;;4996438;28;20301;-68
2022/10/25 12:23:24;;;;;;;9.57;4.17;;;26.10;62.00;;;;;;5000942;28;20574;-68
2022/10/25 12:26:04;;;;;;;8.00;3.50;;;26.10;61.80;;;;;;5002231;28;20201;-68
2022/10/25 12:28:41;;;;;;;7.37;2.80;;;26.20;61.20;;;;;;5001434;28;20206;-68
2022/10/25 12:31:16;;;;;;;5.27;3.10;;;26.20;61.60;;;;;;5017403;28;20647;-68
2022/10/25 12:33:51;;;;;;;6.90;3.50;;;26.20;61.10;;;;;;5003020;28;20665;-68
2022/10/25 12:36:33;;;;;;;6.67;3.87;;;26.20;61.20;;;;;;5001135;28;20208;-68
2022/10/25 12:39:21;;;;;;;9.60;4.20;;;26.10;61.00;;;;;;4999788;28;20244;-68
2022/10/25 12:41:59;;;;;;;9.37;4.17;;;26.10;61.20;;;;;;5000147;28;20207;-67
2022/10/25 12:44:53;;;;;;;11.30;2.97;;;26.10;61.00;;;;;;4998476;28;20237;-68
2022/10/25 12:47:23;;;;;;;6.60;2.70;;;26.00;61.10;;;;;;5000456;28;20551;-66
2022/10/25 12:49:56;;;;;;;9.17;3.40;;;26.00;61.10;;;;;;5003332;28;20536;-69
2022/10/25 12:52:38;;;;;;;5.60;3.27;;;26.00;60.80;;;;;;5001733;28;20201;-65
2022/10/25 12:55:38;;;;;;;10.00;3.40;;;26.00;61.10;;;;;;5001251;28;20266;-67
2022/10/25 12:58:35;;;;;;;4.53;2.73;;;26.00;61.60;;;;;;4999630;28;20694;-69
2022/10/25 13:01:36;;;;;;;6.63;2.90;;;25.90;61.30;;;;;;5006628;28;20211;-66
2022/10/25 13:04:21;;;;;;;9.23;3.67;;;25.90;61.20;;;;;;5004546;28;20209;-66
2022/10/25 13:06:51;;;;;;;7.43;3.00;;;25.80;61.20;;;;;;4995941;28;20267;-68